Terminal Aerodrome Forecast
Issued by NWS

Home | Current Version | Previous Version | Text Only | Print | Product List | Glossary On
Versions: 1 2 3 4 5 6 7 8 9 10 11 12
000
FTUS41 KPHI 252325
TAFMIV
TAF
KMIV 252325Z 2600/2624 19006KT P6SM SCT250
     FM260300 VRB03KT P6SM SCT250
     FM261300 22008KT P6SM FEW050
     FM261800 19008G16KT P6SM FEW050=

USA.gov is the U.S. government's official web portal to all federal, state and local government web resources and services.